Time;durP1;ratioP1;P1;durP2;ratioP2;P2;SDS_P1;SDS_P2;PMS_P1;PMS_P2;Temp;Humidity;BMP_temperature;BMP_pressure;BME280_temperature;BME280_humidity;BME280_pressure;Samples;Min_cycle;Max_cycle;Signal;HPM_P1;HPM_P2
2021/07/06 00:00:59;;;;;;;1.80;1.00;;;;;;;18.30;64.54;99110.34;4989669;28;20243;-90
2021/07/06 00:03:26;;;;;;;2.03;1.00;;;;;;;18.29;64.81;99125.00;5076013;28;20298;-90
2021/07/06 00:05:53;;;;;;;0.97;0.83;;;;;;;18.33;64.75;99132.28;5055783;28;20244;-88
2021/07/06 00:08:19;;;;;;;1.13;1.00;;;;;;;18.33;64.70;99129.59;5054882;28;20245;-89
2021/07/06 00:10:46;;;;;;;1.53;0.93;;;;;;;18.28;64.92;99126.91;5071621;28;20236;-88
2021/07/06 00:13:13;;;;;;;2.60;1.30;;;;;;;18.13;64.57;99102.59;5054423;28;20213;-90
2021/07/06 00:15:40;;;;;;;3.20;1.00;;;;;;;18.24;64.66;99131.28;5088881;28;20232;-90
2021/07/06 00:18:07;;;;;;;2.20;1.10;;;;;;;18.21;64.99;99129.09;5055459;28;20685;-86
2021/07/06 00:20:34;;;;;;;1.10;1.00;;;;;;;18.18;65.30;99140.53;5071669;28;20233;-90
2021/07/06 00:23:03;;;;;;;2.00;1.10;;;;;;;18.00;65.41;99130.34;5071715;28;20259;-91
2021/07/06 00:25:31;;;;;;;3.70;1.10;;;;;;;18.07;66.21;99148.97;5055290;28;20233;-90
2021/07/06 00:27:58;;;;;;;2.10;1.00;;;;;;;17.89;66.79;99142.31;5071557;28;20213;-91
2021/07/06 00:30:25;;;;;;;1.13;1.03;;;;;;;17.86;66.84;99149.13;5054384;28;20229;-91
2021/07/06 00:32:53;;;;;;;1.23;1.00;;;;;;;17.81;67.01;99151.84;5071646;28;20228;-91
2021/07/06 00:35:20;;;;;;;1.23;1.00;;;;;;;17.80;67.18;99165.66;5054950;28;20229;-90
2021/07/06 00:37:47;;;;;;;3.13;1.30;;;;;;;17.72;67.39;99158.94;5054271;28;20300;-92
2021/07/06 00:40:15;;;;;;;1.90;1.00;;;;;;;17.72;67.73;99171.66;5059034;28;20233;-91
2021/07/06 00:42:44;;;;;;;1.37;1.10;;;;;;;17.66;67.64;99164.63;5054292;28;20244;-89
2021/07/06 00:45:12;;;;;;;3.27;1.10;;;;;;;17.68;67.65;99157.88;5038143;28;20233;-88
2021/07/06 00:47:42;;;;;;;1.10;1.00;;;;;;;17.64;67.80;99162.19;5070938;28;20535;-91
2021/07/06 00:50:17;;;;;;;2.00;1.00;;;;;;;17.67;67.96;99166.25;5053193;28;20223;-89
2021/07/06 00:52:44;;;;;;;2.03;1.20;;;;;;;17.60;68.02;99156.53;5070506;28;20224;-91
2021/07/06 00:55:11;;;;;;;2.53;1.37;;;;;;;17.58;68.00;99156.00;5070988;28;20312;-92
2021/07/06 00:57:39;;;;;;;1.80;1.20;;;;;;;17.62;67.88;99158.16;5070403;28;20225;-89
2021/07/06 01:00:13;;;;;;;1.67;1.30;;;;;;;17.72;67.69;99163.53;5036525;28;20352;-90
2021/07/06 01:02:40;;;;;;;2.83;1.33;;;;;;;17.75;66.97;99158.38;5040901;28;20226;-88
2021/07/06 01:05:09;;;;;;;2.07;1.73;;;;;;;17.78;66.91;99149.66;5057996;28;20233;-86
2021/07/06 01:07:36;;;;;;;2.73;1.50;;;;;;;17.86;66.69;99148.28;5057517;28;20229;-90
2021/07/06 01:10:05;;;;;;;2.07;1.40;;;;;;;17.91;66.34;99167.25;5039712;28;20283;-88
2021/07/06 01:12:32;;;;;;;1.47;1.30;;;;;;;17.96;66.05;99157.16;5040507;28;20268;-91
2021/07/06 01:15:04;;;;;;;1.30;1.20;;;;;;;17.97;66.16;99161.50;5040661;28;20312;-85
2021/07/06 01:17:31;;;;;;;1.40;1.30;;;;;;;18.00;65.90;99158.25;5040447;28;20275;-91
2021/07/06 01:20:00;;;;;;;2.23;1.37;;;;;;;17.99;66.00;99158.53;5057319;28;20308;-87
2021/07/06 01:22:31;;;;;;;1.50;1.40;;;;;;;17.97;65.87;99139.81;5040720;28;20225;-91
2021/07/06 01:25:00;;;;;;;1.50;1.40;;;;;;;17.98;65.84;99141.44;5040968;28;20230;-90
2021/07/06 01:27:27;;;;;;;2.17;1.50;;;;;;;17.99;65.87;99139.56;5056645;28;20231;-91
2021/07/06 01:29:54;;;;;;;1.40;1.30;;;;;;;17.96;66.19;99145.53;5073814;28;20229;-91
2021/07/06 01:32:21;;;;;;;1.47;1.27;;;;;;;17.92;65.92;99130.91;5056874;28;20257;-90
2021/07/06 01:34:48;;;;;;;1.40;1.30;;;;;;;17.92;66.11;99131.72;5040516;28;20225;-91
2021/07/06 01:37:19;;;;;;;1.83;1.13;;;;;;;17.87;66.19;99126.31;5047908;28;20310;-90
2021/07/06 01:39:47;;;;;;;1.27;1.10;;;;;;;17.92;66.47;99134.44;5056586;28;20229;-87
2021/07/06 01:42:18;;;;;;;2.03;1.20;;;;;;;17.85;66.71;99139.34;5040047;28;20246;-91
2021/07/06 01:44:46;;;;;;;1.30;1.20;;;;;;;17.80;66.91;99133.97;5040721;28;20308;-90
2021/07/06 01:47:13;;;;;;;1.77;1.50;;;;;;;17.83;67.04;99141.53;5056145;28;20233;-90
2021/07/06 01:49:40;;;;;;;1.40;1.30;;;;;;;17.70;66.69;99125.88;5024080;28;20283;-90
2021/07/06 01:52:07;;;;;;;1.60;1.50;;;;;;;17.75;66.48;99131.28;5036359;28;20318;-91
2021/07/06 01:54:34;;;;;;;1.50;1.40;;;;;;;17.79;66.40;99132.31;5036725;28;20316;-92
2021/07/06 01:57:00;;;;;;;2.53;1.40;;;;;;;17.76;66.44;99127.47;5039880;28;20317;-91
2021/07/06 01:59:27;;;;;;;1.57;1.47;;;;;;;17.73;66.54;99132.66;5039779;28;20233;-88
2021/07/06 02:01:54;;;;;;;1.60;1.50;;;;;;;17.66;66.54;99132.94;5056325;28;20233;-91
2021/07/06 02:04:21;;;;;;;2.87;1.40;;;;;;;17.61;67.28;99127.53;5038773;28;20233;-86
2021/07/06 02:06:48;;;;;;;2.70;1.60;;;;;;;17.59;67.59;99129.69;5042539;28;20569;-85
2021/07/06 02:09:14;;;;;;;2.77;1.47;;;;;;;17.56;67.90;99139.19;5052628;28;20234;-91
2021/07/06 02:11:42;;;;;;;2.83;1.43;;;;;;;17.50;67.90;99142.16;5035095;28;20250;-91
2021/07/06 02:14:09;;;;;;;1.80;1.70;;;;;;;17.45;68.03;99134.88;5036164;28;20232;-91
2021/07/06 02:16:37;;;;;;;1.50;1.40;;;;;;;17.42;67.94;99132.72;5038864;28;20221;-90
2021/07/06 02:19:04;;;;;;;2.70;1.60;;;;;;;17.38;67.79;99137.06;5056198;28;20229;-87
2021/07/06 02:21:30;;;;;;;2.00;1.80;;;;;;;17.32;67.96;99135.47;5056175;28;20257;-91
2021/07/06 02:23:57;;;;;;;1.97;1.33;;;;;;;17.31;68.33;99139.25;5055646;28;20241;-84
2021/07/06 02:26:24;;;;;;;1.50;1.40;;;;;;;17.25;68.72;99134.13;5050255;28;20308;-89
2021/07/06 02:28:51;;;;;;;3.23;1.50;;;;;;;17.23;68.83;99144.41;5022513;28;20229;-90
2021/07/06 02:31:18;;;;;;;3.20;1.60;;;;;;;17.21;68.80;99149.31;5039309;28;20221;-91
2021/07/06 02:33:45;;;;;;;1.53;1.30;;;;;;;17.16;68.72;99144.72;5055536;28;20283;-90
2021/07/06 02:36:11;;;;;;;2.10;1.60;;;;;;;17.14;68.72;99142.28;5036545;28;20226;-90
2021/07/06 02:38:39;;;;;;;2.30;1.37;;;;;;;17.18;68.88;99154.16;5046585;28;20226;-86
2021/07/06 02:41:06;;;;;;;2.53;1.60;;;;;;;17.21;68.65;99154.72;5039345;28;20312;-90
2021/07/06 02:43:33;;;;;;;2.10;1.90;;;;;;;17.21;68.49;99155.53;5055601;28;20505;-90
2021/07/06 02:45:59;;;;;;;1.90;1.70;;;;;;;17.18;68.62;99142.53;5055059;28;20320;-92
2021/07/06 02:48:26;;;;;;;2.10;1.70;;;;;;;17.16;68.45;99140.13;5037862;28;20869;-89
2021/07/06 02:50:53;;;;;;;2.33;1.80;;;;;;;17.16;68.71;99150.94;5038996;28;20317;-91
2021/07/06 02:53:20;;;;;;;1.90;1.80;;;;;;;17.22;68.69;99157.13;5072043;28;20229;-88
2021/07/06 02:55:47;;;;;;;2.20;1.97;;;;;;;17.15;68.60;99143.09;5038653;28;20256;-89
2021/07/06 02:58:13;;;;;;;2.00;1.80;;;;;;;17.22;69.10;99148.22;5054981;28;20225;-87
2021/07/06 03:00:40;;;;;;;2.20;2.00;;;;;;;17.22;68.65;99145.53;5035004;28;20229;-91
2021/07/06 03:03:08;;;;;;;2.73;2.17;;;;;;;17.16;68.66;99134.72;5052022;28;20234;-90
2021/07/06 03:05:36;;;;;;;4.40;2.00;;;;;;;17.21;68.77;99138.47;5068279;28;20540;-90
2021/07/06 03:08:03;;;;;;;2.10;1.90;;;;;;;17.21;68.69;99136.59;5070812;28;20232;-92
2021/07/06 03:10:36;;;;;;;1.80;1.70;;;;;;;17.21;68.62;99133.06;5055200;28;20317;-92
2021/07/06 03:13:04;;;;;;;2.07;1.70;;;;;;;17.26;68.66;99149.31;5038768;28;20249;-86
2021/07/06 03:15:31;;;;;;;3.83;1.93;;;;;;;17.20;69.02;99153.91;5027915;28;20542;-92
2021/07/06 03:18:00;;;;;;;2.30;2.10;;;;;;;17.12;69.23;99139.03;5053398;28;20717;-92
2021/07/06 03:20:27;;;;;;;2.37;1.77;;;;;;;17.09;69.41;99131.47;5054202;28;20320;-85
2021/07/06 03:22:54;;;;;;;3.53;2.10;;;;;;;17.20;68.93;99144.97;5037577;28;20579;-90
2021/07/06 03:25:24;;;;;;;2.87;1.90;;;;;;;17.16;69.14;99133.91;5021651;28;20229;-89
2021/07/06 03:27:52;;;;;;;3.10;1.90;;;;;;;17.21;68.73;99131.19;5054842;28;20222;-92
2021/07/06 03:30:21;;;;;;;2.33;2.13;;;;;;;17.25;68.46;99139.56;5021475;28;20316;-91
2021/07/06 03:32:50;;;;;;;3.40;1.93;;;;;;;17.32;68.47;99140.06;5038278;28;20308;-89
2021/07/06 03:35:18;;;;;;;2.17;1.80;;;;;;;17.42;68.26;99140.84;5038244;28;20263;-90
2021/07/06 03:37:45;;;;;;;2.07;1.90;;;;;;;17.45;68.18;99131.38;5037994;28;20217;-90
2021/07/06 03:40:13;;;;;;;2.57;2.07;;;;;;;17.44;68.48;99141.41;5037156;28;20228;-91
2021/07/06 03:42:39;;;;;;;2.83;2.10;;;;;;;17.41;68.67;99133.81;5054783;28;20260;-86
2021/07/06 03:45:09;;;;;;;2.47;1.90;;;;;;;17.51;68.47;99146.50;5071041;28;20308;-86
2021/07/06 03:47:36;;;;;;;2.30;2.10;;;;;;;17.49;68.45;99137.84;5034208;28;20321;-87
2021/07/06 03:50:06;;;;;;;2.20;2.00;;;;;;;17.45;67.81;99134.88;5050772;28;20229;-87
2021/07/06 03:52:33;;;;;;;2.47;2.27;;;;;;;17.55;68.06;99137.53;5051266;28;20230;-87
2021/07/06 03:55:00;;;;;;;3.20;1.97;;;;;;;17.61;67.81;99149.22;5057765;28;20221;-91
2021/07/06 03:57:30;;;;;;;2.60;2.30;;;;;;;17.64;67.43;99137.03;5054188;28;20244;-91
2021/07/06 03:59:58;;;;;;;2.50;1.87;;;;;;;17.65;67.76;99135.91;5055308;28;20233;-90
2021/07/06 04:02:25;;;;;;;3.77;2.10;;;;;;;17.87;67.64;99147.22;5054438;28;20241;-90
2021/07/06 04:04:52;;;;;;;2.40;2.20;;;;;;;19.16;63.94;99145.72;5021520;28;20227;-90
2021/07/06 04:07:19;;;;;;;2.70;2.20;;;;;;;21.25;57.24;99138.97;5038957;28;20225;-87
2021/07/06 04:09:46;;;;;;;3.20;2.23;;;;;;;22.78;52.42;99136.19;5050789;28;20697;-89
2021/07/06 04:12:13;;;;;;;2.30;1.90;;;;;;;23.42;49.77;99141.38;5034251;28;20232;-91
2021/07/06 04:14:40;;;;;;;4.70;2.30;;;;;;;23.59;49.47;99144.19;5037811;28;20296;-86
2021/07/06 04:17:07;;;;;;;2.27;1.90;;;;;;;23.72;48.86;99139.72;5037807;28;20311;-87
2021/07/06 04:19:33;;;;;;;3.00;1.93;;;;;;;23.57;49.47;99140.94;5037904;28;20330;-88
2021/07/06 04:22:00;;;;;;;3.80;1.90;;;;;;;23.71;48.83;99136.16;5054572;28;20284;-90
2021/07/06 04:24:29;;;;;;;2.30;2.10;;;;;;;23.75;48.90;99133.63;5070431;28;20321;-86
2021/07/06 04:26:57;;;;;;;1.83;1.73;;;;;;;23.93;48.03;99138.81;5038026;28;20231;-90
2021/07/06 04:29:25;;;;;;;7.07;5.40;;;;;;;24.19;47.66;99141.59;5037499;28;20238;-89
2021/07/06 04:31:52;;;;;;;5.00;2.97;;;;;;;24.58;46.28;99137.09;5071099;28;20241;-88
2021/07/06 04:34:20;;;;;;;3.17;2.33;;;;;;;25.37;44.15;99138.25;5038645;28;20605;-86
2021/07/06 04:36:47;;;;;;;2.30;1.87;;;;;;;26.27;41.74;99245.00;5040741;28;20240;-89
2021/07/06 04:39:14;;;;;;;2.67;1.90;;;;;;;26.59;41.24;99161.91;5024940;28;20235;-84
2021/07/06 04:41:43;;;;;;;1.92;1.60;;;;;;;25.86;42.15;99139.47;5041143;28;20239;-87
2021/07/06 04:44:11;;;;;;;1.87;1.77;;;;;;;25.18;44.19;99145.25;5041000;28;20229;-87
2021/07/06 04:46:38;;;;;;;1.80;1.67;;;;;;;24.55;45.79;99150.31;5040682;28;20654;-89
2021/07/06 04:49:04;;;;;;;1.80;1.70;;;;;;;24.11;46.59;99145.13;5040864;28;20239;-89
2021/07/06 04:51:32;;;;;;;3.80;1.80;;;;;;;23.81;47.57;99159.69;5041194;28;20232;-87
2021/07/06 04:54:00;;;;;;;2.10;1.80;;;;;;;23.69;47.84;99161.13;5040875;28;20235;-82
2021/07/06 04:56:28;;;;;;;1.98;1.77;;;;;;;23.47;48.50;99155.69;5039685;28;20279;-87
2021/07/06 04:58:55;;;;;;;2.43;2.00;;;;;;;23.36;48.90;99145.34;5036673;28;20850;-86
2021/07/06 05:01:22;;;;;;;2.85;1.88;;;;;;;23.32;49.10;99147.09;5048796;28;20934;-89
2021/07/06 05:03:49;;;;;;;2.30;2.10;;;;;;;23.33;49.10;99149.50;5040561;28;20233;-85
2021/07/06 05:06:18;;;;;;;2.40;1.85;;;;;;;23.37;49.40;99155.97;5025497;28;20436;-84
2021/07/06 05:08:45;;;;;;;3.58;2.10;;;;;;;23.30;49.73;99152.06;5071369;28;20221;-89
2021/07/06 05:11:13;;;;;;;2.97;2.40;;;;;;;23.35;50.19;99163.66;5040898;28;20229;-85
2021/07/06 05:13:39;;;;;;;7.22;6.53;;;;;;;23.43;49.51;99151.16;5040472;28;20640;-87
2021/07/06 05:16:07;;;;;;;6.93;5.90;;;;;;;23.43;49.78;99160.16;5055440;28;20248;-84
2021/07/06 05:18:34;;;;;;;5.68;2.60;;;;;;;23.58;49.62;99159.78;5023734;28;20232;-87
2021/07/06 05:21:00;;;;;;;3.80;2.03;;;;;;;23.54;49.32;99149.78;5056750;28;20331;-87
2021/07/06 05:23:27;;;;;;;2.13;1.75;;;;;;;23.70;49.17;99159.19;5056506;28;20288;-89
2021/07/06 05:25:54;;;;;;;2.65;1.95;;;;;;;23.76;49.37;99151.63;5036396;28;20230;-85
2021/07/06 05:28:21;;;;;;;2.33;1.55;;;;;;;23.96;48.77;99151.84;5053562;28;20683;-87
2021/07/06 05:30:48;;;;;;;1.70;1.58;;;;;;;24.10;48.15;99152.50;5056396;28;20236;-88
2021/07/06 05:33:15;;;;;;;2.75;1.92;;;;;;;24.12;48.38;99149.47;5039334;28;20313;-87
2021/07/06 05:35:42;;;;;;;6.55;2.17;;;;;;;24.28;47.74;99133.41;5024068;28;20234;-86
2021/07/06 05:38:08;;;;;;;3.72;1.85;;;;;;;24.46;47.22;99137.75;5022571;28;20221;-89
2021/07/06 05:40:57;;;;;;;2.97;2.00;;;;;;;24.59;47.24;99141.47;5037160;28;20279;-88
2021/07/06 05:43:25;;;;;;;4.90;2.13;;;;;;;24.77;47.02;99148.53;5040289;28;20707;-88
2021/07/06 05:45:53;;;;;;;3.25;2.10;;;;;;;24.95;46.23;99150.94;5056599;28;20233;-87
2021/07/06 05:48:21;;;;;;;6.07;2.08;;;;;;;24.99;46.50;99145.59;5039220;28;20589;-85
2021/07/06 05:50:47;;;;;;;2.97;2.10;;;;;;;25.09;45.79;99148.00;5023413;28;20235;-83
2021/07/06 05:53:14;;;;;;;2.33;1.90;;;;;;;25.20;45.59;99138.28;5056341;28;20607;-90
2021/07/06 05:55:42;;;;;;;2.58;1.90;;;;;;;25.38;45.04;99133.56;5039557;28;20217;-86
2021/07/06 05:58:10;;;;;;;3.53;1.92;;;;;;;25.55;45.03;99149.16;5055364;28;20249;-84
2021/07/06 06:00:38;;;;;;;2.22;2.00;;;;;;;25.68;44.44;99140.69;5039170;28;20235;-85
2021/07/06 06:03:10;;;;;;;5.40;2.22;;;;;;;25.83;43.84;99144.81;5039180;28;20286;-85
2021/07/06 06:05:38;;;;;;;2.53;2.05;;;;;;;25.98;43.96;99147.00;5039777;28;20225;-86
2021/07/06 06:08:06;;;;;;;2.72;2.20;;;;;;;26.00;43.88;99143.91;5038196;28;20225;-85
2021/07/06 06:10:33;;;;;;;4.55;2.30;;;;;;;26.04;43.92;99153.06;5046765;28;20228;-85
2021/07/06 06:13:00;;;;;;;3.15;2.15;;;;;;;25.98;44.30;99140.69;5037006;28;20222;-85
2021/07/06 06:15:27;;;;;;;4.10;2.35;;;;;;;26.12;44.12;99149.47;5042325;28;20233;-85
2021/07/06 06:17:55;;;;;;;3.95;2.33;;;;;;;26.12;44.34;99144.81;5034914;28;20622;-84
2021/07/06 06:20:21;;;;;;;4.75;2.53;;;;;;;26.21;44.25;99153.00;5038622;28;20233;-85
2021/07/06 06:22:48;;;;;;;3.05;2.58;;;;;;;26.32;43.96;99156.94;5037361;28;20314;-86
2021/07/06 06:25:15;;;;;;;4.80;2.63;;;;;;;26.38;43.65;99149.31;5079516;28;20251;-84
2021/07/06 06:27:42;;;;;;;5.55;2.50;;;;;;;26.51;43.80;99142.72;5022073;28;20303;-87
2021/07/06 06:30:11;;;;;;;5.18;3.00;;;;;;;26.67;43.35;99141.78;5046518;28;20232;-87
2021/07/06 06:32:38;;;;;;;3.80;3.08;;;;;;;26.72;43.35;99147.09;5043439;28;20259;-87
2021/07/06 06:35:05;;;;;;;3.80;2.78;;;;;;;26.79;43.24;99151.22;5056089;28;20250;-88
2021/07/06 06:37:32;;;;;;;6.28;2.85;;;;;;;26.94;43.03;99123.13;5055878;28;20721;-86
2021/07/06 06:39:59;;;;;;;5.95;2.97;;;;;;;27.21;42.43;99132.69;5057541;28;20227;-87
2021/07/06 06:42:26;;;;;;;3.30;3.10;;;;;;;27.26;41.82;99114.03;5020423;28;20233;-87
2021/07/06 06:44:52;;;;;;;3.92;3.10;;;;;;;27.52;41.69;99130.25;5054652;28;20663;-87
2021/07/06 06:47:19;;;;;;;4.05;3.20;;;;;;;27.63;41.10;99130.56;5061534;28;20331;-87
2021/07/06 06:49:46;;;;;;;3.78;3.00;;;;;;;27.79;40.74;99123.25;5048349;28;20581;-88
2021/07/06 06:52:13;;;;;;;7.50;3.08;;;;;;;27.98;40.28;99123.44;5017341;28;20264;-87
2021/07/06 06:54:40;;;;;;;3.33;2.90;;;;;;;28.09;40.23;99116.28;5037524;28;20229;-86
2021/07/06 06:57:07;;;;;;;6.50;3.05;;;;;;;28.30;40.13;99121.69;5053750;28;20235;-85
2021/07/06 06:59:34;;;;;;;4.95;3.10;;;;;;;28.39;40.32;99114.88;5034345;28;20226;-88
2021/07/06 07:02:16;;;;;;;3.15;2.80;;;;;;;28.49;40.09;99124.59;5065873;28;20327;-87
2021/07/06 07:04:45;;;;;;;8.07;3.15;;;;;;;28.60;39.89;99122.16;5070046;28;20287;-87
2021/07/06 07:07:13;;;;;;;4.60;2.97;;;;;;;28.45;39.98;99116.25;5035420;28;20248;-87
2021/07/06 07:09:40;;;;;;;8.18;3.25;;;;;;;28.46;40.53;99111.53;5036515;28;20616;-87
2021/07/06 07:12:07;;;;;;;9.38;3.35;;;;;;;28.56;40.52;99105.50;5053017;28;20218;-87
2021/07/06 07:14:35;;;;;;;3.38;2.90;;;;;;;28.52;40.45;99109.31;5057108;28;20604;-87
2021/07/06 07:17:03;;;;;;;4.63;2.60;;;;;;;28.67;40.27;99092.81;5024760;28;20240;-88
2021/07/06 07:19:30;;;;;;;6.50;2.60;;;;;;;28.82;39.65;99094.84;5036026;28;20234;-87
2021/07/06 07:22:01;;;;;;;5.63;2.55;;;;;;;29.00;39.01;99102.78;5036781;28;20225;-87
2021/07/06 07:24:28;;;;;;;4.22;3.00;;;;;;;29.19;37.54;99081.63;5053429;28;20225;-86
2021/07/06 07:26:56;;;;;;;3.47;2.85;;;;;;;29.49;36.43;99092.25;5053389;28;20234;-87
2021/07/06 07:29:23;;;;;;;3.10;2.75;;;;;;;29.71;36.20;99092.38;5036371;28;20602;-87
2021/07/06 07:31:52;;;;;;;4.95;2.65;;;;;;;29.84;36.78;99095.81;5033612;28;20704;-87
2021/07/06 07:34:18;;;;;;;4.15;2.90;;;;;;;29.93;37.01;99093.69;5049416;28;20241;-87
2021/07/06 07:36:46;;;;;;;5.90;3.17;;;;;;;30.08;36.47;99095.63;5033215;28;20238;-87
2021/07/06 07:39:13;;;;;;;2.80;2.60;;;;;;;30.16;35.82;99082.75;5049933;28;20226;-88
2021/07/06 07:41:41;;;;;;;4.53;2.92;;;;;;;30.30;35.08;99085.00;5050920;28;20226;-87
2021/07/06 07:44:08;;;;;;;3.38;2.65;;;;;;;30.45;35.67;99098.78;5032665;28;20305;-88
2021/07/06 07:46:35;;;;;;;3.20;2.90;;;;;;;30.54;34.35;99084.75;5049950;28;20226;-87
2021/07/06 07:49:02;;;;;;;3.88;2.75;;;;;;;30.50;33.77;99083.88;5016669;28;20230;-88
2021/07/06 07:51:29;;;;;;;3.28;2.97;;;;;;;30.50;33.65;99078.34;5059686;28;20222;-87
2021/07/06 07:53:56;;;;;;;3.25;2.72;;;;;;;30.59;33.17;99079.72;5020834;28;20283;-87
2021/07/06 07:56:23;;;;;;;3.00;2.80;;;;;;;30.68;33.83;99084.22;5051687;28;20233;-87
2021/07/06 07:58:50;;;;;;;3.28;3.00;;;;;;;30.70;32.95;99077.16;5019282;28;20271;-87
2021/07/06 08:01:17;;;;;;;3.72;2.95;;;;;;;30.77;33.32;99074.53;5036309;28;20323;-88
2021/07/06 08:03:43;;;;;;;4.03;2.90;;;;;;;30.92;33.36;99081.91;5035706;28;20528;-87
2021/07/06 08:06:10;;;;;;;3.08;2.88;;;;;;;30.98;33.29;99079.66;5034270;28;20221;-86
2021/07/06 08:08:37;;;;;;;4.00;3.35;;;;;;;30.87;33.79;99057.34;5035705;28;20230;-86
2021/07/06 08:11:04;;;;;;;3.28;2.90;;;;;;;31.07;33.94;99069.19;5037496;28;20245;-88
2021/07/06 08:13:33;;;;;;;4.00;2.90;;;;;;;31.20;33.17;99067.81;5040906;28;20571;-88
2021/07/06 08:16:01;;;;;;;4.30;2.90;;;;;;;31.24;33.42;99065.91;5024420;28;20260;-87
2021/07/06 08:18:28;;;;;;;4.57;3.28;;;;;;;31.34;33.30;99054.22;5037581;28;20495;-87
2021/07/06 08:20:55;;;;;;;6.78;6.03;;;;;;;31.44;33.34;99061.88;5057220;28;20237;-87
2021/07/06 08:23:22;;;;;;;5.47;3.33;;;;;;;31.36;33.67;99046.31;5040704;28;20312;-88
2021/07/06 08:25:49;;;;;;;5.15;3.40;;;;;;;31.36;33.88;99034.44;5057306;28;20233;-87
2021/07/06 08:28:16;;;;;;;6.43;3.58;;;;;;;31.51;33.65;99060.38;5040042;28;20304;-87
2021/07/06 08:30:42;;;;;;;4.65;3.20;;;;;;;31.50;34.37;99053.25;5039156;28;20230;-88
2021/07/06 08:33:09;;;;;;;7.70;3.17;;;;;;;31.57;33.43;99042.31;5039851;28;20271;-87
2021/07/06 08:35:36;;;;;;;4.22;3.25;;;;;;;31.68;33.41;99044.06;5057001;28;20655;-87
2021/07/06 08:38:04;;;;;;;5.85;3.53;;;;;;;31.75;33.33;99049.72;5039648;28;20295;-87
2021/07/06 08:40:31;;;;;;;3.70;3.40;;;;;;;31.94;33.51;99042.44;5056279;28;20240;-88
2021/07/06 08:43:01;;;;;;;5.45;3.45;;;;;;;31.94;32.72;99029.38;5040145;28;20608;-88
2021/07/06 08:45:28;;;;;;;3.30;3.03;;;;;;;32.06;32.87;99031.91;5023750;28;20260;-88
2021/07/06 08:47:56;;;;;;;3.72;3.17;;;;;;;31.92;32.40;99029.75;5023367;28;20535;-88
2021/07/06 08:50:23;;;;;;;4.50;3.30;;;;;;;32.00;32.83;99029.88;5038094;28;20229;-87
2021/07/06 08:52:50;;;;;;;4.20;2.95;;;;;;;31.94;32.45;99037.69;5039344;28;20230;-87
2021/07/06 08:55:19;;;;;;;6.80;3.35;;;;;;;31.94;32.18;99032.16;5040008;28;20317;-87
2021/07/06 08:57:48;;;;;;;9.30;3.30;;;;;;;31.90;32.77;99017.47;5040461;28;20503;-86
2021/07/06 09:00:17;;;;;;;4.10;3.80;;;;;;;32.04;32.24;99025.16;5055492;28;20232;-88
2021/07/06 09:03:00;;;;;;;3.70;3.40;;;;;;;32.13;31.78;99026.50;5039706;28;20261;-88
2021/07/06 09:05:28;;;;;;;4.43;3.72;;;;;;;32.10;31.27;99032.00;5039898;28;20229;-88
2021/07/06 09:07:55;;;;;;;6.05;2.92;;;;;;;32.19;30.92;99022.22;5039798;28;20233;-88
2021/07/06 09:10:26;;;;;;;3.35;2.88;;;;;;;32.30;30.60;99011.25;5019780;28;20221;-88
2021/07/06 09:12:53;;;;;;;3.78;3.30;;;;;;;32.31;30.25;99012.84;5036203;28;20571;-88
2021/07/06 09:15:30;;;;;;;4.13;2.80;;;;;;;32.44;30.21;99007.84;5039005;28;20272;-88
2021/07/06 09:18:08;;;;;;;3.30;2.50;;;;;;;32.41;30.41;99008.59;5040200;28;20614;-87
2021/07/06 09:20:36;;;;;;;4.55;2.80;;;;;;;32.58;29.79;99005.22;5054906;28;20320;-87
2021/07/06 09:23:23;;;;;;;4.05;2.63;;;;;;;32.68;29.58;99008.13;5020823;28;20252;-87
2021/07/06 09:26:11;;;;;;;4.95;2.90;;;;;;;32.77;29.62;99007.81;5039316;28;20641;-87
2021/07/06 09:28:49;;;;;;;3.60;2.60;;;;;;;32.80;29.26;99000.72;5071671;28;20584;-86
2021/07/06 09:31:22;;;;;;;2.92;2.70;;;;;;;32.96;28.34;98999.25;5072342;28;20308;-87
2021/07/06 09:33:54;;;;;;;2.70;2.30;;;;;;;33.11;28.38;99000.19;5068945;28;20266;-87
2021/07/06 09:36:45;;;;;;;2.55;2.05;;;;;;;33.24;26.63;98993.16;5051716;28;20264;-87
2021/07/06 09:39:18;;;;;;;2.30;1.75;;;;;;;33.36;26.32;98997.63;5018998;28;20299;-86
2021/07/06 09:41:57;;;;;;;2.33;1.90;;;;;;;33.52;25.99;98987.81;5035377;28;20230;-87
2021/07/06 09:44:40;;;;;;;2.20;1.90;;;;;;;33.44;25.58;98982.59;5035084;28;20637;-87
2021/07/06 09:47:09;;;;;;;2.08;1.98;;;;;;;33.53;25.71;98981.06;5025307;28;20233;-84
2021/07/06 09:49:43;;;;;;;2.00;1.90;;;;;;;33.62;24.85;98972.38;5038334;28;20530;-84
2021/07/06 09:52:15;;;;;;;2.35;2.00;;;;;;;33.71;26.39;98972.06;5036710;28;20232;-84
2021/07/06 09:54:47;;;;;;;2.33;1.80;;;;;;;33.77;24.60;98960.19;5038663;28;20818;-84
2021/07/06 09:57:29;;;;;;;3.33;2.10;;;;;;;33.88;24.70;98958.25;5038836;28;20342;-84
2021/07/06 10:00:12;;;;;;;2.50;1.90;;;;;;;34.00;24.77;98962.66;5054989;28;20229;-85
2021/07/06 10:02:42;;;;;;;1.90;1.80;;;;;;;34.13;24.83;98961.13;5053590;28;20229;-84
2021/07/06 10:05:20;;;;;;;2.70;1.85;;;;;;;34.16;24.66;98959.53;5020560;28;20312;-84
2021/07/06 10:07:47;;;;;;;3.70;1.88;;;;;;;34.11;24.77;98941.25;5054326;28;20292;-85
2021/07/06 10:10:15;;;;;;;1.90;1.80;;;;;;;34.10;24.45;98950.78;5053619;28;20557;-84
2021/07/06 10:12:44;;;;;;;2.13;1.80;;;;;;;34.29;23.97;98938.56;5038244;28;20237;-84
2021/07/06 10:15:13;;;;;;;2.30;2.17;;;;;;;34.33;25.05;98951.28;5037879;28;20229;-84
2021/07/06 10:17:46;;;;;;;3.08;1.90;;;;;;;34.49;24.12;98959.22;5034735;28;20237;-84
2021/07/06 10:20:18;;;;;;;2.72;2.00;;;;;;;34.46;23.71;98951.69;5037223;28;20359;-84
2021/07/06 10:22:45;;;;;;;2.00;1.77;;;;;;;34.23;24.37;98945.69;5051137;28;20233;-84
2021/07/06 10:25:13;;;;;;;2.25;2.10;;;;;;;34.42;23.38;98954.47;5033758;28;20288;-84
2021/07/06 10:27:45;;;;;;;4.43;2.10;;;;;;;34.49;23.90;98945.31;5017340;28;20230;-85
2021/07/06 10:30:18;;;;;;;3.17;2.10;;;;;;;34.69;23.45;98954.91;5017559;28;20280;-84
2021/07/06 10:32:52;;;;;;;2.22;2.00;;;;;;;34.73;24.07;98944.59;5033159;28;20226;-84
2021/07/06 10:35:45;;;;;;;2.92;1.98;;;;;;;34.88;23.76;98946.19;5049339;28;20641;-84
2021/07/06 10:38:39;;;;;;;2.25;2.10;;;;;;;34.99;23.50;98940.63;5029520;28;20236;-84
2021/07/06 10:41:16;;;;;;;3.00;1.98;;;;;;;35.14;23.68;98941.38;5033727;28;20309;-84
2021/07/06 10:43:45;;;;;;;1.90;1.80;;;;;;;35.18;23.70;98945.00;5034480;28;20234;-84
2021/07/06 10:46:31;;;;;;;3.42;2.08;;;;;;;34.97;23.48;98936.63;5066526;28;20519;-84
2021/07/06 10:49:10;;;;;;;2.20;2.10;;;;;;;34.97;23.66;98926.28;5034514;28;20230;-84
2021/07/06 10:51:37;;;;;;;2.55;2.20;;;;;;;34.93;23.97;98928.28;5017761;28;20234;-84
2021/07/06 10:54:18;;;;;;;5.07;2.08;;;;;;;34.96;23.90;98930.25;5033757;28;20313;-84
2021/07/06 10:56:53;;;;;;;2.80;2.15;;;;;;;35.04;23.40;98919.94;5018154;28;20288;-84
2021/07/06 10:59:40;;;;;;;2.30;2.10;;;;;;;35.07;23.45;98917.13;5017841;28;20233;-84
2021/07/06 11:02:12;;;;;;;2.10;1.90;;;;;;;35.12;23.58;98902.03;5033855;28;20645;-84
2021/07/06 11:04:39;;;;;;;2.00;1.80;;;;;;;35.42;24.08;98921.84;5034802;28;20313;-84
2021/07/06 11:07:07;;;;;;;1.80;1.70;;;;;;;35.54;22.94;98910.28;5034544;28;20248;-85
2021/07/06 11:09:35;;;;;;;2.13;1.85;;;;;;;35.58;22.84;98916.63;5050612;28;20638;-85
2021/07/06 11:12:24;;;;;;;2.13;1.80;;;;;;;35.73;22.61;98909.06;5033666;28;20226;-84
2021/07/06 11:14:52;;;;;;;2.88;2.20;;;;;;;35.63;22.53;98896.72;5067007;28;20219;-84
2021/07/06 11:17:43;;;;;;;2.00;1.88;;;;;;;35.67;23.44;98897.53;5020813;28;20222;-84
2021/07/06 11:20:16;;;;;;;1.77;1.63;;;;;;;35.74;23.13;98899.50;5022069;28;20661;-84
2021/07/06 11:22:43;;;;;;;2.90;2.00;;;;;;;35.82;22.77;98901.03;5051302;28;20283;-85
2021/07/06 11:25:20;;;;;;;3.85;1.98;;;;;;;35.87;22.03;98905.41;5055190;28;20229;-84
2021/07/06 11:28:14;;;;;;;1.77;1.65;;;;;;;35.98;21.91;98894.97;5070044;28;20237;-84
2021/07/06 11:30:49;;;;;;;1.95;1.77;;;;;;;36.13;22.17;98891.72;5069467;28;20235;-83
2021/07/06 11:33:33;;;;;;;3.03;1.95;;;;;;;36.16;21.98;98890.91;5051942;28;20232;-84
2021/07/06 11:36:03;;;;;;;2.47;1.75;;;;;;;36.18;21.94;98887.72;5051864;28;20241;-84
2021/07/06 11:38:37;;;;;;;3.38;1.80;;;;;;;36.27;22.30;98887.25;5035941;28;20280;-84
2021/07/06 11:41:06;;;;;;;2.42;2.00;;;;;;;36.39;22.11;98884.78;5053920;28;20320;-84
2021/07/06 11:43:33;;;;;;;1.80;1.50;;;;;;;36.42;22.04;98874.81;5037224;28;20316;-83